Jarreau, LA (70749)

4:56 PM CST on January 26, 2015 (GMT -0600)
Lake View Cottage | Change Station
CLOSE
Current Station
Personal Weather Station
Location: Ventress, LA
Elevation: 10 ft
Nearby Weather Stations

Elev 10 ft 30.65 °N, 91.48 °W | Updated 19 seconds ago

Clear
Clear
58.8 °F
Feels Like 58.8 °F
N
6.9
Wind Variable Wind from WNW
Gusts 8.0 mph

Today
High -- | Low -- °F
--% Chance of Precip.
Yesterday
High -- | Low -- °F
Precip. -- in
7:00 AM 5:36 PM
Waxing Crescent, 47% visible
Pressure 30.10 in
Visibility 10.0 miles
Clouds Clear
Dew Point 39 °F
Humidity 48%
Rainfall 0.00 in
Snow Depth Not available.
UV 1 out of 12
Pollen 7.00 out of 12
Air Quality Not available.
Flu Activity Not available.
METAR KHZR 262235Z AUTO 27007KT 10SM CLR 15/03 A3010 RMK AO2 T01450029

More Conditions Fewer Conditions

Pressure 30.10 in
Visibility 10.0 miles
Clouds Clear
Dew Point 39 °F
Humidity 48%
Rainfall 0.00 in
Snow Depth Not available.
UV 1 out of 12
Pollen 7.00 out of 12
Air Quality Not available.
Flu Activity Not available.
METAR KHZR 262235Z AUTO 27007KT 10SM CLR 15/03 A3010 RMK AO2 T01450029

More Conditions Fewer Conditions

10-Day Weather Forecast

Almanac

Astronomy

Jan. 26, 2015 Rise Set
Actual Time
Civil Twilight
Nautical Twilight
Astronomical Twilight
Moon
Length of Visible Light
Length of Day
Tomorrow will be .
, % of the Moon is Illuminated

Today's Extremes

State Highs State Lows

Community

WunderPhotos

Upload Photos

1,790,387 photos uploaded!

WunderBlogs® & News

Nearby

Air Quality

  Air Quality AQ Index Pollutant
Not available.

Snow Depth

Station Depth Elevation

Earthquake Activity

City Distance Mag. Time & Date
Minimum magnitude displayed is 2.5.

Coastal Water Temperatures

Place Temperature

Nearby Weather Stations